createdAt,value
2018-04-18T00:02:51.570Z,10.93
2018-04-18T00:05:55.875Z,10.87
2018-04-18T00:08:59.224Z,10.84
2018-04-18T00:12:02.550Z,10.84
2018-04-18T00:15:05.925Z,10.84
2018-04-18T00:18:09.405Z,10.82
2018-04-18T00:21:13.537Z,10.83
2018-04-18T00:24:16.901Z,10.78
2018-04-18T00:27:20.275Z,10.76
2018-04-18T00:30:23.753Z,10.70
2018-04-18T00:33:27.128Z,10.67
2018-04-18T00:36:30.493Z,10.67
2018-04-18T00:39:33.853Z,10.61
2018-04-18T00:42:37.448Z,10.53
2018-04-18T00:45:40.844Z,10.43
2018-04-18T00:48:44.216Z,10.34
2018-04-18T00:51:48.337Z,10.30
2018-04-18T00:54:52.479Z,10.29
2018-04-18T00:57:55.854Z,10.25
2018-04-18T01:01:00.069Z,10.25
2018-04-18T01:04:04.198Z,10.25
2018-04-18T01:07:07.561Z,10.25
2018-04-18T01:10:10.940Z,10.28
2018-04-18T01:13:14.297Z,10.31
2018-04-18T01:16:17.660Z,10.29
2018-04-18T01:19:21.023Z,10.31
2018-04-18T01:22:24.364Z,10.31
2018-04-18T01:25:28.527Z,10.31
2018-04-18T01:28:31.883Z,10.30
2018-04-18T01:35:10.007Z,10.31
2018-04-18T01:38:14.164Z,10.26
2018-04-18T01:41:17.482Z,10.21
2018-04-18T01:44:20.806Z,10.19
2018-04-18T01:47:24.893Z,10.18
2018-04-18T01:50:28.205Z,10.15
2018-04-18T01:53:31.501Z,10.08
2018-04-18T01:56:34.886Z,10.04
2018-04-18T01:59:38.287Z,10.02
2018-04-18T02:02:41.781Z,10.04
2018-04-18T02:05:45.099Z,10.16
2018-04-18T02:08:48.429Z,10.26
2018-04-18T02:11:52.605Z,10.32
2018-04-18T02:14:55.997Z,10.30
2018-04-18T02:17:59.301Z,10.37
2018-04-18T02:21:02.604Z,10.36
2018-04-18T02:24:06.727Z,10.35
2018-04-18T02:27:10.108Z,10.31
2018-04-18T02:30:13.437Z,10.27
2018-04-18T02:33:16.797Z,10.26
2018-04-18T02:36:20.110Z,10.24
2018-04-18T02:39:23.514Z,10.24
2018-04-18T02:42:26.892Z,10.19
2018-04-18T02:45:30.196Z,10.20
2018-04-18T02:48:33.504Z,10.21
2018-04-18T02:51:36.827Z,10.16
2018-04-18T02:54:40.139Z,10.10
2018-04-18T02:57:44.981Z,10.07
2018-04-18T03:00:48.331Z,10.09
2018-04-18T03:03:51.659Z,10.06
2018-04-18T03:06:55.745Z,10.03
2018-04-18T03:09:59.054Z,9.95
2018-04-18T03:13:02.377Z,9.94
2018-04-18T03:16:06.486Z,9.94
2018-04-18T03:19:10.548Z,9.97
2018-04-18T03:22:13.849Z,10.00
2018-04-18T03:25:17.248Z,10.01
2018-04-18T03:28:20.562Z,10.03
2018-04-18T03:31:23.870Z,10.03
2018-04-18T03:34:27.273Z,10.06
2018-04-18T03:37:30.581Z,10.08
2018-04-18T03:40:33.976Z,10.15
2018-04-18T03:43:37.286Z,10.26
2018-04-18T03:46:40.608Z,10.37
2018-04-18T03:49:43.954Z,10.42
2018-04-18T03:52:47.358Z,10.43
2018-04-18T03:55:50.665Z,10.40
2018-04-18T03:58:54.049Z,10.37
2018-04-18T04:01:58.269Z,10.36
2018-04-18T04:08:12.138Z,10.38
2018-04-18T04:11:15.461Z,10.37
2018-04-18T04:14:19.533Z,10.34
2018-04-18T04:17:40.777Z,10.27
2018-04-18T04:21:02.002Z,10.22
2018-04-18T04:24:24.845Z,10.17
2018-04-18T04:27:28.247Z,10.12
2018-04-18T04:30:31.556Z,10.06
2018-04-18T04:33:34.877Z,10.02
2018-04-18T04:36:38.969Z,10.03
2018-04-18T04:39:42.296Z,10.02
2018-04-18T04:42:46.374Z,10.05
2018-04-18T04:45:50.692Z,10.12
2018-04-18T04:48:54.084Z,10.21
2018-04-18T04:51:57.484Z,10.32
2018-04-18T04:55:00.818Z,10.41
2018-04-18T04:58:04.150Z,10.52
2018-04-18T05:01:07.460Z,10.61
2018-04-18T05:04:10.779Z,10.72
2018-04-18T05:07:14.097Z,10.85
2018-04-18T05:10:17.511Z,10.93
2018-04-18T05:13:20.804Z,10.97
2018-04-18T05:16:24.183Z,11.10
2018-04-18T05:19:27.586Z,11.18
2018-04-18T05:22:30.903Z,11.24
2018-04-18T05:25:34.291Z,11.28
2018-04-18T05:28:37.609Z,11.37
2018-04-18T05:31:41.694Z,11.51
2018-04-18T05:34:45.000Z,11.65
2018-04-18T05:37:48.313Z,11.81
2018-04-18T05:40:53.141Z,11.95
2018-04-18T05:43:56.543Z,12.07
2018-04-18T05:46:59.870Z,12.19
2018-04-18T05:50:04.034Z,12.39
2018-04-18T05:53:07.455Z,12.55
2018-04-18T05:56:10.837Z,12.69
2018-04-18T05:59:14.180Z,12.84
2018-04-18T06:02:18.349Z,12.95
2018-04-18T06:05:21.749Z,13.07
2018-04-18T06:08:25.057Z,13.18
2018-04-18T06:11:28.373Z,13.30
2018-04-18T06:14:31.701Z,13.44
2018-04-18T06:17:35.068Z,13.58
2018-04-18T06:20:38.415Z,13.74
2018-04-18T06:23:41.737Z,13.91
2018-04-18T06:26:45.161Z,14.08
2018-04-18T06:29:48.538Z,14.23
2018-04-18T06:32:51.971Z,14.42
2018-04-18T06:35:55.294Z,14.57
2018-04-18T06:38:58.648Z,14.67
2018-04-18T06:42:02.046Z,14.80
2018-04-18T06:45:05.445Z,14.94
2018-04-18T06:48:08.778Z,15.07
2018-04-18T06:51:12.892Z,15.13
2018-04-18T06:54:16.210Z,15.28
2018-04-18T06:57:19.560Z,15.41
2018-04-18T07:00:22.887Z,15.60
2018-04-18T07:03:26.997Z,15.71
2018-04-18T07:06:30.302Z,15.86
2018-04-18T07:09:34.542Z,16.00
2018-04-18T07:12:37.883Z,16.13
2018-04-18T07:15:41.195Z,16.27
2018-04-18T07:18:44.526Z,16.49
2018-04-18T07:21:48.601Z,16.70
2018-04-18T07:24:52.063Z,16.77
2018-04-18T07:27:55.415Z,16.86
2018-04-18T07:30:58.811Z,16.90
2018-04-18T07:34:02.192Z,16.84
2018-04-18T07:37:05.519Z,16.84
2018-04-18T07:40:08.976Z,17.00
2018-04-18T07:43:13.027Z,17.13
2018-04-18T07:46:16.412Z,17.26
2018-04-18T07:49:19.870Z,17.23
2018-04-18T07:52:23.206Z,17.30
2018-04-18T07:55:26.534Z,17.36
2018-04-18T07:58:29.841Z,17.39
2018-04-18T08:01:33.222Z,17.58
2018-04-18T08:04:36.570Z,17.66
2018-04-18T08:07:39.896Z,17.73
2018-04-18T08:10:43.209Z,17.81
2018-04-18T08:13:46.557Z,17.84
2018-04-18T08:16:49.872Z,17.73
2018-04-18T08:19:53.190Z,17.63
2018-04-18T08:22:56.507Z,17.76
2018-04-18T08:25:59.894Z,17.71
2018-04-18T08:29:03.224Z,17.76
2018-04-18T08:32:07.365Z,17.98
2018-04-18T08:35:10.673Z,18.21
2018-04-18T08:38:14.024Z,18.32
2018-04-18T08:41:17.405Z,18.23
2018-04-18T08:44:20.812Z,18.22
2018-04-18T08:47:24.153Z,18.33
2018-04-18T08:50:28.281Z,18.31
2018-04-18T08:53:31.614Z,18.31
2018-04-18T08:56:35.077Z,18.18
2018-04-18T08:59:38.416Z,18.14
2018-04-18T09:02:41.892Z,18.12
2018-04-18T09:05:45.204Z,18.09
2018-04-18T09:08:48.633Z,18.11
2018-04-18T09:11:51.972Z,18.16
2018-04-18T09:14:55.419Z,18.39
2018-04-18T09:17:58.760Z,18.58
2018-04-18T09:21:02.993Z,18.74
2018-04-18T09:24:06.310Z,18.92
2018-04-18T09:27:09.758Z,18.87
2018-04-18T09:30:13.084Z,18.85
2018-04-18T09:33:17.260Z,19.02
2018-04-18T09:36:20.607Z,19.16
2018-04-18T09:39:24.109Z,19.54
2018-04-18T09:42:27.447Z,19.69
2018-04-18T09:45:30.851Z,19.68
2018-04-18T09:48:34.258Z,19.68
2018-04-18T09:51:37.665Z,19.54
2018-04-18T09:54:42.489Z,19.81
2018-04-18T09:57:45.843Z,19.87
2018-04-18T10:00:54.650Z,19.73
2018-04-18T10:04:04.218Z,19.94
2018-04-18T10:07:07.535Z,20.06
2018-04-18T10:10:10.887Z,19.81
2018-04-18T10:13:14.968Z,19.90
2018-04-18T10:16:18.421Z,20.15
2018-04-18T10:19:21.698Z,20.39
2018-04-18T10:22:25.038Z,20.57
2018-04-18T10:25:28.358Z,20.72
2018-04-18T10:28:31.720Z,21.10
2018-04-18T10:31:35.071Z,20.63
2018-04-18T10:34:38.404Z,20.42
2018-04-18T10:37:42.490Z,20.67
2018-04-18T10:40:45.841Z,20.47
2018-04-18T10:43:49.156Z,20.59
2018-04-18T10:46:52.494Z,20.71
2018-04-18T10:49:55.874Z,20.86
2018-04-18T10:52:59.883Z,20.96
2018-04-18T10:56:04.054Z,20.90
2018-04-18T10:59:08.219Z,21.11
2018-04-18T11:02:11.546Z,21.09
2018-04-18T11:05:14.934Z,20.83
2018-04-18T11:08:18.378Z,20.74
2018-04-18T11:11:21.715Z,20.87
2018-04-18T11:14:25.175Z,20.82
2018-04-18T11:17:28.637Z,20.78
2018-04-18T11:20:32.028Z,20.62
2018-04-18T11:23:35.438Z,20.88
2018-04-18T11:26:38.760Z,20.68
2018-04-18T11:29:42.916Z,20.66
2018-04-18T11:32:47.059Z,20.83
2018-04-18T11:35:50.474Z,21.03
2018-04-18T11:38:53.854Z,20.88
2018-04-18T11:41:57.201Z,20.79
2018-04-18T11:45:00.609Z,21.10
2018-04-18T11:48:04.055Z,20.98
2018-04-18T11:51:07.357Z,20.67
2018-04-18T11:54:10.692Z,20.89
2018-04-18T11:57:14.878Z,20.94
2018-04-18T12:00:18.235Z,21.23
2018-04-18T12:03:21.565Z,21.09
2018-04-18T12:06:24.895Z,20.93
2018-04-18T12:09:28.206Z,21.20
2018-04-18T12:12:32.397Z,21.15
2018-04-18T12:15:35.731Z,21.09
2018-04-18T12:18:39.186Z,20.98
2018-04-18T12:21:42.510Z,20.85
2018-04-18T12:24:45.843Z,20.96
2018-04-18T12:27:49.171Z,21.02
2018-04-18T12:30:52.640Z,21.06
2018-04-18T12:33:55.967Z,21.12
2018-04-18T12:36:59.391Z,21.26
2018-04-18T12:40:02.771Z,21.05
2018-04-18T12:43:06.231Z,21.15
2018-04-18T12:46:09.673Z,21.27
2018-04-18T12:49:13.026Z,21.42
2018-04-18T12:52:17.197Z,21.36
2018-04-18T12:55:20.534Z,21.11
2018-04-18T12:58:24.708Z,21.45
2018-04-18T13:01:28.061Z,21.63
2018-04-18T13:04:31.398Z,21.60
2018-04-18T13:07:34.737Z,21.57
2018-04-18T13:10:38.829Z,21.68
2018-04-18T13:13:42.226Z,21.43
2018-04-18T13:16:45.539Z,20.88
2018-04-18T13:19:48.927Z,21.09
2018-04-18T13:22:52.248Z,21.26
2018-04-18T13:25:56.430Z,21.47
2018-04-18T13:28:59.849Z,21.73
2018-04-18T13:32:03.198Z,21.62
2018-04-18T13:35:06.518Z,21.70
2018-04-18T13:38:09.874Z,21.80
2018-04-18T13:41:14.041Z,22.02
2018-04-18T13:44:17.383Z,22.25
2018-04-18T13:47:21.456Z,21.76
2018-04-18T13:50:24.870Z,21.77
2018-04-18T13:53:28.280Z,21.84
2018-04-18T13:56:31.621Z,21.64
2018-04-18T13:59:34.965Z,21.79
2018-04-18T14:02:38.364Z,21.87
2018-04-18T14:05:41.775Z,21.72
2018-04-18T14:08:45.165Z,21.89
2018-04-18T14:11:48.512Z,21.64
2018-04-18T14:14:51.850Z,21.59
2018-04-18T14:17:55.264Z,21.84
2018-04-18T14:20:58.622Z,21.91
2018-04-18T14:24:01.966Z,21.71
2018-04-18T14:27:05.311Z,21.70
2018-04-18T14:30:08.660Z,21.44
2018-04-18T14:33:12.009Z,21.50
2018-04-18T14:36:15.342Z,21.62
2018-04-18T14:39:18.709Z,21.85
2018-04-18T14:42:22.244Z,21.68
2018-04-18T14:45:25.613Z,21.57
2018-04-18T14:48:28.938Z,21.77
2018-04-18T14:51:32.348Z,21.77
2018-04-18T14:54:35.754Z,21.68
2018-04-18T14:57:39.105Z,21.97
2018-04-18T15:00:42.470Z,21.92
2018-04-18T15:03:45.802Z,21.79
2018-04-18T15:06:49.122Z,21.77
2018-04-18T15:09:52.462Z,21.97
2018-04-18T15:12:55.765Z,21.90
2018-04-18T15:15:59.122Z,21.97
2018-04-18T15:19:02.459Z,21.85
2018-04-18T15:22:05.841Z,21.93
2018-04-18T15:25:09.265Z,22.75
2018-04-18T15:28:12.607Z,23.55
2018-04-18T15:31:15.931Z,24.53
2018-04-18T15:34:19.293Z,24.40
2018-04-18T15:37:22.600Z,24.50
2018-04-18T15:40:26.059Z,24.81
2018-04-18T15:43:29.445Z,25.53
2018-04-18T15:46:32.834Z,25.60
2018-04-18T15:49:36.240Z,25.73
2018-04-18T15:52:39.691Z,25.36
2018-04-18T15:55:43.025Z,25.13
2018-04-18T15:58:46.401Z,25.67
2018-04-18T16:01:49.722Z,26.02
2018-04-18T16:04:53.133Z,25.93
2018-04-18T16:07:56.458Z,26.25
2018-04-18T16:10:59.794Z,26.53
2018-04-18T16:14:03.121Z,26.48
2018-04-18T16:17:06.466Z,25.76
2018-04-18T16:20:10.550Z,25.28
2018-04-18T16:23:13.957Z,24.82
2018-04-18T16:26:17.293Z,24.74
2018-04-18T16:29:44.583Z,23.98
2018-04-18T16:32:47.910Z,23.02
2018-04-18T16:35:51.254Z,22.26
2018-04-18T16:38:54.597Z,21.97
2018-04-18T16:41:57.943Z,23.29
2018-04-18T16:45:01.306Z,23.78
2018-04-18T16:48:04.628Z,24.79
2018-04-18T16:51:08.725Z,25.61
2018-04-18T16:54:12.109Z,26.01
2018-04-18T16:57:15.517Z,25.92
2018-04-18T17:00:18.929Z,26.30
2018-04-18T17:03:22.313Z,26.30
2018-04-18T17:06:25.670Z,26.21
2018-04-18T17:09:29.013Z,26.43
2018-04-18T17:12:32.401Z,26.41
2018-04-18T17:15:36.524Z,26.52
2018-04-18T17:18:39.925Z,26.99
2018-04-18T17:21:43.313Z,27.17
2018-04-18T17:24:46.674Z,26.41
2018-04-18T17:27:49.994Z,25.74
2018-04-18T17:30:53.331Z,25.46
2018-04-18T17:33:56.763Z,25.04
2018-04-18T17:37:00.655Z,25.09
2018-04-18T17:40:04.031Z,24.43
2018-04-18T17:43:07.370Z,23.83
2018-04-18T17:46:11.557Z,22.76
2018-04-18T17:49:14.936Z,22.04
2018-04-18T17:52:18.334Z,21.42
2018-04-18T17:55:21.675Z,20.77
2018-04-18T17:58:26.572Z,20.30
2018-04-18T18:01:29.921Z,19.92
2018-04-18T18:04:34.084Z,19.64
2018-04-18T18:07:37.531Z,19.36
2018-04-18T18:10:41.614Z,19.08
2018-04-18T18:13:44.964Z,18.83
2018-04-18T18:16:48.286Z,18.60
2018-04-18T18:19:51.631Z,18.43
2018-04-18T18:22:55.017Z,18.22
2018-04-18T18:25:58.413Z,18.03
2018-04-18T18:29:01.814Z,17.87
2018-04-18T18:32:05.250Z,17.71
2018-04-18T18:35:08.627Z,17.59
2018-04-18T18:38:11.993Z,17.46
2018-04-18T18:41:15.324Z,17.32
2018-04-18T18:44:18.679Z,17.18
2018-04-18T18:47:22.002Z,17.04
2018-04-18T18:50:25.392Z,16.97
2018-04-18T18:53:28.704Z,16.85
2018-04-18T18:56:32.110Z,16.68
2018-04-18T18:59:35.443Z,16.55
2018-04-18T19:02:39.618Z,16.44
2018-04-18T19:05:42.944Z,16.40
2018-04-18T19:08:46.334Z,16.31
2018-04-18T19:11:49.729Z,16.18
2018-04-18T19:14:53.109Z,16.07
2018-04-18T19:17:56.435Z,16.02
2018-04-18T19:21:00.575Z,15.92
2018-04-18T19:24:04.666Z,15.78
2018-04-18T19:27:08.053Z,15.64
2018-04-18T19:30:11.459Z,15.55
2018-04-18T19:33:14.858Z,15.54
2018-04-18T19:36:18.302Z,15.46
2018-04-18T19:39:21.658Z,15.35
2018-04-18T19:42:26.495Z,15.27
2018-04-18T19:45:29.885Z,15.19
2018-04-18T19:48:33.271Z,15.10
2018-04-18T19:51:38.948Z,15.02
2018-04-18T19:54:42.339Z,14.95
2018-04-18T19:57:45.756Z,14.91
2018-04-18T20:00:49.132Z,14.96
2018-04-18T20:03:53.562Z,14.87
2018-04-18T20:06:56.904Z,14.84
2018-04-18T20:10:01.013Z,14.75
2018-04-18T20:13:05.086Z,14.71
2018-04-18T20:16:08.429Z,14.62
2018-04-18T20:19:12.501Z,14.51
2018-04-18T20:22:20.388Z,14.42
2018-04-18T20:25:23.816Z,14.34
2018-04-18T20:28:27.218Z,14.29
2018-04-18T20:31:30.558Z,14.23
2018-04-18T20:34:33.922Z,14.18
2018-04-18T20:37:37.241Z,14.11
2018-04-18T20:40:41.956Z,14.06
2018-04-18T20:43:45.364Z,14.00
2018-04-18T20:46:49.521Z,13.95
2018-04-18T20:49:52.962Z,13.88
2018-04-18T20:52:57.098Z,13.84
2018-04-18T20:56:00.420Z,13.78
2018-04-18T20:59:04.003Z,13.72
2018-04-18T21:02:08.093Z,13.65
2018-04-18T21:05:11.483Z,13.58
2018-04-18T21:08:14.808Z,13.55
2018-04-18T21:11:19.725Z,13.51
2018-04-18T21:14:23.144Z,13.46
2018-04-18T21:17:26.528Z,13.41
2018-04-18T21:20:29.930Z,13.37
2018-04-18T21:23:33.328Z,13.30
2018-04-18T21:26:37.443Z,13.25
2018-04-18T21:29:40.852Z,13.26
2018-04-18T21:32:44.399Z,13.24
2018-04-18T21:35:47.763Z,13.20
2018-04-18T21:38:51.086Z,13.15
2018-04-18T21:41:55.197Z,13.06
2018-04-18T21:44:59.316Z,12.95
2018-04-18T21:48:03.421Z,12.87
2018-04-18T21:51:07.609Z,12.82
2018-04-18T21:54:10.950Z,12.79
2018-04-18T21:57:15.116Z,12.77
2018-04-18T22:00:18.522Z,12.73
2018-04-18T22:03:21.830Z,12.74
2018-04-18T22:06:25.167Z,12.72
2018-04-18T22:09:29.241Z,12.68
2018-04-18T22:12:32.647Z,12.63
2018-04-18T22:15:36.032Z,12.59
2018-04-18T22:18:39.390Z,12.55
2018-04-18T22:21:42.706Z,12.49
2018-04-18T22:24:46.140Z,12.47
2018-04-18T22:27:50.225Z,12.45
2018-04-18T22:30:53.566Z,12.40
2018-04-18T22:33:56.947Z,12.34
2018-04-18T22:37:00.284Z,12.32
2018-04-18T22:40:04.366Z,12.29
2018-04-18T22:43:07.715Z,12.21
2018-04-18T22:46:11.039Z,12.14
2018-04-18T22:49:14.382Z,12.07
2018-04-18T22:52:17.766Z,12.01
2018-04-18T22:55:21.129Z,11.98
2018-04-18T22:58:24.604Z,12.00
2018-04-18T23:01:28.729Z,11.97
2018-04-18T23:04:32.050Z,11.95
2018-04-18T23:07:35.469Z,11.96
2018-04-18T23:10:38.874Z,11.93
2018-04-18T23:13:42.211Z,11.82
2018-04-18T23:16:46.337Z,11.70
2018-04-18T23:19:50.563Z,11.64
2018-04-18T23:22:53.896Z,11.61
2018-04-18T23:25:57.405Z,11.62
2018-04-18T23:29:00.815Z,11.63
2018-04-18T23:32:05.665Z,11.65
2018-04-18T23:35:10.481Z,11.65
2018-04-18T23:38:13.881Z,11.61
2018-04-18T23:41:17.267Z,11.60
2018-04-18T23:44:20.675Z,11.62
2018-04-18T23:47:23.984Z,11.56
2018-04-18T23:50:27.319Z,11.44
2018-04-18T23:53:31.488Z,11.37
2018-04-18T23:56:34.891Z,11.30
2018-04-18T23:59:38.281Z,11.29
